Time;durP1;ratioP1;P1;durP2;ratioP2;P2;SDS_P1;SDS_P2;PMS_P1;PMS_P2;Temp;Humidity;BMP_temperature;BMP_pressure;BME280_temperature;BME280_humidity;BME280_pressure;Samples;Min_cycle;Max_cycle;Signal;HPM_P1;HPM_P2
2022/07/11 00:00:45;;;;;;;3.10;2.20;;;;;;;11.55;80.24;100315.11;106237;1271;22735;-77
2022/07/11 00:03:11;;;;;;;4.00;2.20;;;;;;;11.49;80.19;100315.35;106216;1271;22760;-78
2022/07/11 00:05:37;;;;;;;3.30;2.20;;;;;;;11.47;80.35;100316.80;106049;1273;22580;-77
2022/07/11 00:08:06;;;;;;;2.50;2.00;;;;;;;11.44;80.30;100315.08;106025;1273;22547;-73
2022/07/11 00:10:33;;;;;;;2.10;1.80;;;;;;;11.43;80.38;100315.61;106269;1273;22473;-73
2022/07/11 00:12:59;;;;;;;3.40;2.10;;;;;;;11.41;80.31;100309.83;106244;1273;25311;-73
2022/07/11 00:15:26;;;;;;;2.30;1.90;;;;;;;11.42;80.43;100304.52;106560;1271;22617;-72
2022/07/11 00:17:52;;;;;;;3.70;2.20;;;;;;;11.43;80.40;100303.28;106093;1273;25425;-73
2022/07/11 00:20:18;;;;;;;3.10;1.90;;;;;;;11.39;80.22;100305.27;106972;1273;22543;-72
2022/07/11 00:22:44;;;;;;;3.30;2.00;;;;;;;11.34;80.19;100305.86;106781;1273;22674;-73
2022/07/11 00:25:10;;;;;;;2.70;2.10;;;;;;;11.32;80.36;100305.20;106939;1273;22484;-73
2022/07/11 00:27:37;;;;;;;4.50;2.10;;;;;;;11.30;80.40;100301.52;107193;1271;23062;-74
2022/07/11 00:30:03;;;;;;;3.20;1.60;;;;;;;11.30;80.48;100300.29;106947;1271;24199;-72
2022/07/11 00:32:29;;;;;;;3.80;1.70;;;;;;;11.29;80.57;100303.64;106343;1273;22560;-73
2022/07/11 00:34:55;;;;;;;2.90;1.40;;;;;;;11.36;80.72;100303.91;105762;1279;25367;-73
2022/07/11 00:37:22;;;;;;;1.60;1.50;;;;;;;11.41;80.46;100303.14;105622;1279;22690;-73
2022/07/11 00:39:48;;;;;;;3.80;1.80;;;;;;;11.41;80.39;100301.89;105766;1279;22547;-73
2022/07/11 00:42:18;;;;;;;3.10;2.00;;;;;;;11.41;80.33;100296.95;105653;1279;24275;-72
2022/07/11 00:44:44;;;;;;;3.00;1.60;;;;;;;11.42;80.25;100297.65;105518;1279;23046;-73
2022/07/11 00:47:11;;;;;;;4.80;1.80;;;;;;;11.40;80.14;100295.56;105451;1279;22566;-74
2022/07/11 00:49:37;;;;;;;1.50;1.30;;;;;;;11.37;80.01;100296.48;104924;1284;22574;-73
2022/07/11 00:52:04;;;;;;;3.00;1.70;;;;;;;11.26;79.93;100297.14;104974;1284;22745;-73
2022/07/11 00:54:30;;;;;;;3.20;1.50;;;;;;;11.19;79.98;100297.78;105482;1278;22774;-72
2022/07/11 00:56:58;;;;;;;4.50;1.80;;;;;;;11.15;80.12;100294.13;105502;1278;24319;-71
2022/07/11 00:59:25;;;;;;;1.70;1.10;;;;;;;11.12;80.27;100297.52;105805;1279;25373;-77
2022/07/11 01:01:51;;;;;;;2.90;1.60;;;;;;;11.10;80.39;100293.84;105668;1278;25296;-73
2022/07/11 01:04:18;;;;;;;2.40;1.80;;;;;;;11.10;80.34;100295.95;105683;1277;25265;-72
2022/07/11 01:06:44;;;;;;;1.80;1.70;;;;;;;11.09;80.30;100300.02;105815;1279;24275;-72
2022/07/11 01:09:10;;;;;;;2.20;1.80;;;;;;;11.09;80.54;100300.02;105569;1279;22537;-73
2022/07/11 01:11:37;;;;;;;2.80;1.70;;;;;;;11.12;80.30;100295.58;105660;1279;22783;-73
2022/07/11 01:14:03;;;;;;;2.30;1.50;;;;;;;11.09;80.19;100296.31;105547;1281;22559;-73
2022/07/11 01:16:30;;;;;;;2.20;1.40;;;;;;;11.09;80.31;100292.62;105589;1278;22729;-74
2022/07/11 01:18:57;;;;;;;3.40;1.60;;;;;;;11.07;80.24;100294.58;105666;1278;22984;-74
2022/07/11 01:21:23;;;;;;;4.20;2.20;;;;;;;11.11;80.44;100296.13;105605;1278;24299;-74
2022/07/11 01:23:51;;;;;;;1.90;1.50;;;;;;;11.10;80.08;100293.48;105659;1278;22539;-75
2022/07/11 01:26:20;;;;;;;4.30;1.50;;;;;;;11.05;80.03;100296.02;105634;1279;22563;-77
2022/07/11 01:28:47;;;;;;;1.80;1.50;;;;;;;10.96;80.01;100295.59;106053;1275;25282;-77
2022/07/11 01:31:13;;;;;;;4.80;1.60;;;;;;;10.97;80.40;100288.36;106289;1274;22558;-74
2022/07/11 01:33:39;;;;;;;2.80;1.30;;;;;;;11.01;80.42;100286.19;105970;1278;25291;-75
2022/07/11 01:36:07;;;;;;;4.00;1.70;;;;;;;11.02;80.26;100286.88;106017;1279;22535;-76
2022/07/11 01:38:33;;;;;;;3.60;1.50;;;;;;;10.99;80.08;100284.80;105906;1277;22544;-74
2022/07/11 01:41:00;;;;;;;2.40;1.30;;;;;;;10.97;80.16;100284.30;105756;1279;22741;-78
2022/07/11 01:43:27;;;;;;;2.80;1.30;;;;;;;10.94;80.05;100284.00;105724;1278;22563;-74
2022/07/11 01:45:54;;;;;;;1.80;1.30;;;;;;;10.94;80.22;100279.23;105877;1279;22843;-74
2022/07/11 01:48:20;;;;;;;6.70;1.60;;;;;;;10.90;80.09;100276.13;105668;1279;22728;-77
2022/07/11 01:50:48;;;;;;;2.60;1.80;;;;;;;10.90;80.32;100274.54;105667;1279;23965;-84
2022/07/11 01:53:16;;;;;;;2.90;1.60;;;;;;;10.90;80.29;100272.59;105961;1273;24674;-74
2022/07/11 01:55:43;;;;;;;2.30;1.50;;;;;;;10.88;80.31;100273.66;106218;1273;23924;-74
2022/07/11 01:58:30;;;;;;;3.90;2.00;;;;;;;10.85;80.22;100274.05;105920;1273;25304;-74
2022/07/11 02:00:58;;;;;;;3.00;1.20;;;;;;;10.86;80.33;100278.80;105965;1273;23183;-75
2022/07/11 02:03:24;;;;;;;2.20;1.30;;;;;;;10.83;80.26;100273.73;106024;1273;22666;-77
2022/07/11 02:05:51;;;;;;;3.00;1.60;;;;;;;10.83;80.38;100279.36;106059;1273;22565;-73
2022/07/11 02:08:17;;;;;;;3.00;1.50;;;;;;;10.82;80.33;100274.98;105908;1273;24422;-74
2022/07/11 02:10:45;;;;;;;3.70;1.70;;;;;;;10.80;80.37;100268.48;106008;1274;22623;-75
2022/07/11 02:13:13;;;;;;;2.90;1.60;;;;;;;10.81;80.51;100270.58;106251;1273;23702;-74
2022/07/11 02:15:41;;;;;;;4.10;1.50;;;;;;;10.82;80.58;100273.20;106191;1271;23180;-73
2022/07/11 02:18:08;;;;;;;6.10;1.70;;;;;;;10.83;80.58;100275.30;105905;1274;22672;-73
2022/07/11 02:20:35;;;;;;;4.90;2.10;;;;;;;10.85;80.55;100279.16;106200;1273;25281;-73
2022/07/11 02:23:03;;;;;;;4.40;1.90;;;;;;;10.85;80.60;100273.70;106092;1275;25516;-75
2022/07/11 02:25:30;;;;;;;3.00;1.70;;;;;;;10.85;80.66;100281.27;105992;1273;25502;-77
2022/07/11 02:27:56;;;;;;;4.00;1.50;;;;;;;10.84;80.65;100279.17;106125;1271;24290;-75
2022/07/11 02:30:23;;;;;;;4.30;1.90;;;;;;;10.83;80.72;100277.61;106045;1272;22547;-72
2022/07/11 02:32:51;;;;;;;6.80;1.90;;;;;;;10.84;80.53;100278.29;106056;1273;25346;-73
2022/07/11 02:35:18;;;;;;;3.00;1.40;;;;;;;10.80;80.58;100282.39;105997;1274;22541;-75
2022/07/11 02:37:44;;;;;;;3.60;1.70;;;;;;;10.75;80.63;100284.04;106109;1273;23864;-72
2022/07/11 02:40:11;;;;;;;8.60;2.50;;;;;;;10.72;81.10;100284.08;106809;1273;25735;-70
2022/07/11 02:42:37;;;;;;;8.40;2.00;;;;;;;10.72;81.13;100285.84;106468;1273;22564;-72
2022/07/11 02:45:04;;;;;;;4.40;1.60;;;;;;;10.72;81.07;100284.60;106213;1273;24238;-74
2022/07/11 02:47:31;;;;;;;4.10;1.70;;;;;;;10.68;81.13;100287.11;106113;1273;22556;-74
2022/07/11 02:49:57;;;;;;;2.90;1.70;;;;;;;10.66;81.33;100285.91;106128;1273;22689;-72
2022/07/11 02:52:23;;;;;;;4.70;1.90;;;;;;;10.68;81.43;100285.54;105848;1273;22778;-73
2022/07/11 02:54:49;;;;;;;9.20;2.00;;;;;;;10.70;81.46;100293.61;105943;1273;22547;-72
2022/07/11 02:57:16;;;;;;;7.20;2.10;;;;;;;10.72;81.67;100290.07;105898;1271;24128;-71
2022/07/11 02:59:42;;;;;;;8.40;2.00;;;;;;;10.73;81.76;100292.16;106082;1271;27376;-73
2022/07/11 03:02:08;;;;;;;6.00;2.10;;;;;;;10.77;81.73;100290.88;106011;1271;22539;-73
2022/07/11 03:04:35;;;;;;;4.20;2.10;;;;;;;10.82;81.66;100292.23;106305;1271;26548;-72
2022/07/11 03:07:01;;;;;;;3.30;1.80;;;;;;;10.88;81.70;100291.11;106291;1273;26516;-72
2022/07/11 03:09:27;;;;;;;3.00;1.80;;;;;;;10.91;81.61;100289.14;106202;1272;22551;-72
2022/07/11 03:11:54;;;;;;;3.90;2.00;;;;;;;10.93;81.39;100289.48;106024;1271;22605;-77
2022/07/11 03:14:20;;;;;;;4.40;2.10;;;;;;;10.92;81.46;100289.83;106032;1271;22579;-78
2022/07/11 03:16:46;;;;;;;4.40;1.70;;;;;;;10.94;81.50;100292.63;105930;1271;22619;-74
2022/07/11 03:19:13;;;;;;;4.00;1.80;;;;;;;10.98;81.68;100293.63;106067;1271;22567;-75
2022/07/11 03:21:39;;;;;;;5.00;2.50;;;;;;;10.98;81.54;100292.94;105755;1279;22555;-76
2022/07/11 03:24:05;;;;;;;7.00;2.40;;;;;;;10.99;81.65;100295.56;105824;1278;23103;-74
2022/07/11 03:26:31;;;;;;;5.00;2.20;;;;;;;10.96;81.55;100290.69;105694;1279;22590;-78
2022/07/11 03:28:57;;;;;;;4.70;2.00;;;;;;;10.92;81.68;100291.23;105551;1279;22979;-72
2022/07/11 03:31:23;;;;;;;4.70;2.30;;;;;;;10.95;81.77;100291.73;105496;1279;25264;-71
2022/07/11 03:33:50;;;;;;;6.10;2.10;;;;;;;11.01;81.91;100293.25;105494;1279;22767;-72
2022/07/11 03:36:16;;;;;;;3.60;2.20;;;;;;;11.04;81.81;100297.08;105593;1279;24237;-75
2022/07/11 03:38:42;;;;;;;7.40;2.60;;;;;;;11.05;81.69;100298.83;105761;1281;25268;-75
2022/07/11 03:41:08;;;;;;;2.60;2.00;;;;;;;11.07;81.76;100295.29;106267;1274;24431;-76
2022/07/11 03:43:34;;;;;;;6.10;2.10;;;;;;;11.12;81.82;100297.87;106501;1273;22873;-75
2022/07/11 03:46:01;;;;;;;3.90;2.40;;;;;;;11.21;81.86;100295.45;105740;1276;24456;-74
2022/07/11 03:48:28;;;;;;;5.60;2.30;;;;;;;11.24;81.60;100291.89;106144;1271;24398;-74
2022/07/11 03:50:54;;;;;;;2.90;1.50;;;;;;;11.30;81.61;100288.48;106206;1271;25272;-78
2022/07/11 03:53:20;;;;;;;4.50;1.80;;;;;;;11.35;81.43;100284.70;106180;1273;22559;-75
2022/07/11 03:55:47;;;;;;;2.40;1.60;;;;;;;11.39;81.24;100285.17;106047;1271;24447;-77
2022/07/11 03:58:13;;;;;;;2.80;1.30;;;;;;;11.51;81.29;100282.53;106122;1271;24303;-74
2022/07/11 04:00:39;;;;;;;5.90;2.10;;;;;;;11.61;80.96;100282.73;105912;1274;25503;-71
2022/07/11 04:03:06;;;;;;;4.50;1.70;;;;;;;11.73;80.81;100281.67;105087;1281;23048;-72
2022/07/11 04:05:32;;;;;;;1.90;1.70;;;;;;;11.84;80.57;100282.90;105301;1279;22576;-72
2022/07/11 04:07:58;;;;;;;3.60;1.50;;;;;;;11.95;80.16;100283.77;105400;1279;25367;-73
2022/07/11 04:10:25;;;;;;;5.20;2.00;;;;;;;12.01;79.89;100283.35;105741;1279;22743;-73
2022/07/11 04:12:51;;;;;;;2.70;1.50;;;;;;;12.06;79.81;100281.31;105523;1280;25367;-74
2022/07/11 04:15:17;;;;;;;5.10;2.00;;;;;;;12.05;79.63;100276.04;105598;1279;24163;-74
2022/07/11 04:17:43;;;;;;;5.90;1.90;;;;;;;12.06;79.60;100275.14;105546;1279;26549;-73
2022/07/11 04:20:10;;;;;;;4.10;1.70;;;;;;;12.07;79.77;100273.55;105126;1279;321988;-74
2022/07/11 04:22:36;;;;;;;4.40;2.30;;;;;;;12.09;79.74;100266.30;106006;1272;25390;-76
2022/07/11 04:25:03;;;;;;;4.80;2.70;;;;;;;12.13;79.98;100261.64;105898;1271;22951;-73
2022/07/11 04:27:29;;;;;;;5.60;3.00;;;;;;;12.19;80.01;100254.81;106029;1271;22628;-72
2022/07/11 04:29:57;;;;;;;6.90;2.30;;;;;;;12.23;79.82;100248.92;105832;1273;25388;-75
2022/07/11 04:32:24;;;;;;;7.60;2.70;;;;;;;12.29;79.97;100252.16;106029;1271;24249;-73
2022/07/11 04:34:50;;;;;;;3.20;2.10;;;;;;;12.36;80.04;100246.73;106019;1272;25538;-75
2022/07/11 04:37:16;;;;;;;5.90;2.40;;;;;;;12.41;79.80;100246.13;105947;1273;25253;-73
2022/07/11 04:39:45;;;;;;;6.60;3.20;;;;;;;12.40;79.88;100256.23;105842;1273;25273;-73
2022/07/11 04:42:11;;;;;;;7.10;2.50;;;;;;;12.40;79.96;100258.34;106255;1274;25261;-73
2022/07/11 04:44:37;;;;;;;10.20;2.80;;;;;;;12.44;80.42;100264.27;105848;1274;22538;-76
2022/07/11 04:47:04;;;;;;;2.00;1.70;;;;;;;12.58;80.35;100265.58;106040;1271;26544;-73
2022/07/11 04:49:30;;;;;;;8.10;2.30;;;;;;;12.62;79.84;100267.97;105955;1271;25219;-74
2022/07/11 04:51:57;;;;;;;8.30;2.70;;;;;;;12.62;80.02;100273.27;106160;1271;23374;-73
2022/07/11 04:54:28;;;;;;;6.00;2.90;;;;;;;12.66;79.98;100279.56;106105;1271;25429;-74
2022/07/11 04:56:54;;;;;;;4.50;2.60;;;;;;;12.70;80.05;100281.08;106101;1275;24478;-72
2022/07/11 04:59:20;;;;;;;5.50;2.40;;;;;;;12.72;80.08;100276.61;106228;1271;22543;-73
2022/07/11 05:01:47;;;;;;;6.10;2.70;;;;;;;12.76;79.92;100283.08;106058;1274;24965;-82
2022/07/11 05:04:13;;;;;;;6.30;2.60;;;;;;;12.76;79.82;100287.49;106235;1273;25302;-74
2022/07/11 05:06:39;;;;;;;6.10;2.70;;;;;;;12.72;79.76;100300.30;106139;1271;22633;-73
2022/07/11 05:09:07;;;;;;;10.70;3.00;;;;;;;12.66;80.08;100297.58;106179;1271;22557;-77
2022/07/11 05:11:36;;;;;;;5.40;2.20;;;;;;;12.68;80.32;100292.41;106071;1271;25465;-72
2022/07/11 05:14:02;;;;;;;3.00;2.40;;;;;;;12.74;80.28;100287.88;106013;1271;22550;-72
2022/07/11 05:16:29;;;;;;;7.10;3.00;;;;;;;12.83;80.42;100289.30;105871;1271;22557;-72
2022/07/11 05:18:56;;;;;;;7.30;3.00;;;;;;;12.89;80.16;100283.16;105924;1272;23333;-81
2022/07/11 05:21:23;;;;;;;5.70;3.60;;;;;;;13.01;79.85;100293.53;106004;1272;25507;-76
2022/07/11 05:23:50;;;;;;;6.20;2.70;;;;;;;13.04;79.76;100301.25;106013;1272;25296;-74
2022/07/11 05:26:17;;;;;;;5.60;2.90;;;;;;;13.08;79.74;100305.41;105900;1274;22566;-80
2022/07/11 05:28:43;;;;;;;5.40;3.70;;;;;;;13.01;79.50;100308.03;105802;1277;24285;-79
2022/07/11 05:31:10;;;;;;;8.50;3.70;;;;;;;12.96;79.59;100308.64;105799;1277;23355;-78
2022/07/11 05:33:36;;;;;;;6.60;4.40;;;;;;;12.98;80.05;100312.84;105719;1281;22554;-79
2022/07/11 05:36:03;;;;;;;6.50;4.70;;;;;;;12.95;79.61;100312.02;105686;1281;26520;-78
2022/07/11 05:38:29;;;;;;;7.90;4.30;;;;;;;12.90;79.75;100311.25;105731;1280;22559;-80
2022/07/11 05:40:55;;;;;;;7.80;6.30;;;;;;;12.89;79.83;100315.68;105756;1281;22564;-80
2022/07/11 05:43:23;;;;;;;9.00;6.40;;;;;;;12.87;79.94;100315.02;105895;1277;22749;-81
2022/07/11 05:45:49;;;;;;;8.10;6.20;;;;;;;12.87;80.08;100314.48;105731;1281;22668;-81
2022/07/11 05:48:15;;;;;;;8.20;5.90;;;;;;;12.84;80.03;100318.08;105819;1277;23331;-77
2022/07/11 05:50:41;;;;;;;11.00;6.60;;;;;;;12.85;79.91;100319.83;105798;1281;26509;-79
2022/07/11 05:53:09;;;;;;;11.30;6.30;;;;;;;12.86;79.91;100317.52;105947;1271;24142;-81
2022/07/11 05:55:35;;;;;;;10.30;7.70;;;;;;;12.86;79.88;100320.70;106189;1274;23236;-81
2022/07/11 05:58:01;;;;;;;7.80;7.10;;;;;;;12.87;80.09;100321.04;106207;1274;22570;-79
2022/07/11 06:00:28;;;;;;;11.00;7.80;;;;;;;12.87;79.96;100317.66;106044;1272;24382;-79
2022/07/11 06:02:54;;;;;;;9.50;6.50;;;;;;;12.90;80.20;100317.98;106253;1274;22628;-78
2022/07/11 06:05:22;;;;;;;8.40;5.70;;;;;;;12.94;80.02;100318.24;106226;1274;25279;-82
2022/07/11 06:10:33;;;;;;;8.70;5.90;;;;;;;12.94;79.89;100323.01;106142;1274;24180;-78
2022/07/11 06:12:59;;;;;;;11.20;7.00;;;;;;;12.94;79.82;100324.61;106009;1274;23932;-79
2022/07/11 06:15:25;;;;;;;6.90;5.40;;;;;;;12.92;79.98;100324.30;106095;1275;23722;-77
2022/07/11 06:17:51;;;;;;;7.30;5.00;;;;;;;12.97;80.14;100324.54;106231;1274;22753;-80
2022/07/11 06:20:18;;;;;;;7.50;5.20;;;;;;;13.06;79.99;100320.31;106279;1271;25367;-78
2022/07/11 06:22:44;;;;;;;8.30;4.90;;;;;;;13.11;80.06;100321.09;106064;1275;24269;-79
2022/07/11 06:25:11;;;;;;;8.10;5.40;;;;;;;13.15;79.52;100319.93;106145;1274;22568;-80
2022/07/11 06:27:57;;;;;;;8.40;4.10;;;;;;;13.19;79.45;100321.81;102802;1312;546078;-82
2022/07/11 06:30:24;;;;;;;7.20;4.10;;;;;;;13.17;79.28;100319.38;105179;1286;22566;-78
2022/07/11 06:32:51;;;;;;;7.00;4.10;;;;;;;13.17;79.57;100320.77;105386;1284;22553;-79
2022/07/11 06:35:17;;;;;;;6.90;4.50;;;;;;;13.28;79.57;100322.85;105287;1284;23349;-80
2022/07/11 06:37:44;;;;;;;5.30;3.50;;;;;;;13.36;79.14;100327.10;105105;1284;25510;-80
2022/07/11 06:40:12;;;;;;;8.70;3.90;;;;;;;13.34;78.78;100324.14;105236;1286;24865;-79
2022/07/11 06:42:39;;;;;;;7.70;4.40;;;;;;;13.29;78.69;100327.61;105411;1282;244241;-78
2022/07/11 06:45:07;;;;;;;4.80;3.10;;;;;;;13.28;78.81;100324.10;105596;1283;25355;-78
2022/07/11 06:47:34;;;;;;;5.60;2.80;;;;;;;13.23;78.70;100320.30;105595;1283;24878;-77
2022/07/11 06:50:02;;;;;;;9.50;3.70;;;;;;;13.25;78.80;100318.67;105424;1283;22567;-79
2022/07/11 06:52:29;;;;;;;6.90;3.30;;;;;;;13.31;78.92;100318.36;105452;1283;24341;-81
2022/07/11 06:54:57;;;;;;;6.40;3.20;;;;;;;13.35;78.60;100321.10;105634;1282;23058;-81
2022/07/11 06:57:24;;;;;;;5.40;2.90;;;;;;;13.36;78.24;100320.73;105023;1289;25290;-80
2022/07/11 06:59:51;;;;;;;4.50;2.80;;;;;;;13.32;78.23;100323.10;105078;1288;23951;-79
2022/07/11 07:02:18;;;;;;;5.60;3.10;;;;;;;13.31;78.33;100320.48;104893;1289;22552;-76
2022/07/11 07:04:45;;;;;;;9.90;3.20;;;;;;;13.39;78.66;100317.48;104876;1289;22830;-80
2022/07/11 07:07:12;;;;;;;5.00;2.60;;;;;;;13.53;78.48;100316.85;104759;1289;24311;-83
2022/07/11 07:09:39;;;;;;;7.00;3.00;;;;;;;13.70;78.38;100315.42;104780;1289;22546;-81
2022/07/11 07:12:06;;;;;;;6.80;2.80;;;;;;;13.88;78.19;100310.91;104635;1290;23009;-80
2022/07/11 07:14:33;;;;;;;5.90;3.10;;;;;;;14.04;77.64;100312.84;104837;1289;25277;-81
2022/07/11 07:17:00;;;;;;;5.20;3.20;;;;;;;14.13;77.23;100306.42;105363;1283;22682;-81
2022/07/11 07:19:27;;;;;;;8.10;3.70;;;;;;;14.26;77.30;100307.86;105139;1283;22549;-79
2022/07/11 07:21:54;;;;;;;5.00;4.30;;;;;;;14.32;76.94;100310.17;105536;1283;22876;-80
2022/07/11 07:24:21;;;;;;;7.30;5.50;;;;;;;14.30;76.24;100312.71;105553;1283;22705;-78
2022/07/11 07:26:48;;;;;;;6.90;5.00;;;;;;;14.25;76.10;100311.78;105568;1283;22550;-79
2022/07/11 07:29:15;;;;;;;6.40;4.90;;;;;;;14.20;75.83;100316.89;106080;1274;25383;-79
2022/07/11 07:31:42;;;;;;;8.90;6.30;;;;;;;14.14;75.51;100313.31;106118;1274;23255;-78
2022/07/11 07:34:09;;;;;;;7.60;6.20;;;;;;;14.09;75.42;100307.56;106185;1275;22525;-76
2022/07/11 07:36:36;;;;;;;8.40;6.80;;;;;;;14.13;75.62;100308.55;106254;1274;24456;-76
2022/07/11 07:39:03;;;;;;;7.30;5.10;;;;;;;14.17;75.52;100309.14;106110;1274;22587;-79
2022/07/11 07:41:30;;;;;;;8.90;4.90;;;;;;;14.17;75.61;100304.37;106276;1275;24280;-79
2022/07/11 07:43:57;;;;;;;8.40;5.60;;;;;;;14.23;76.04;100303.85;106207;1274;22629;-77
2022/07/11 07:46:24;;;;;;;6.90;5.10;;;;;;;14.42;75.75;100305.50;106204;1273;25463;-77
2022/07/11 07:48:51;;;;;;;6.20;5.40;;;;;;;14.60;75.40;100305.38;106127;1274;22533;-77
2022/07/11 07:51:19;;;;;;;11.30;6.30;;;;;;;14.69;74.89;100304.05;106052;1274;23970;-83
2022/07/11 07:53:46;;;;;;;5.30;4.80;;;;;;;14.72;74.69;100300.98;106060;1274;25332;-80
2022/07/11 07:56:21;;;;;;;7.40;4.20;;;;;;;14.75;74.35;100298.07;105956;1274;22562;-79
2022/07/11 07:58:48;;;;;;;6.40;4.20;;;;;;;14.77;74.28;100300.14;106056;1275;22690;-81
2022/07/11 08:04:08;;;;;;;4.50;3.70;;;;;;;14.85;74.10;100301.88;106155;1274;25215;-79
2022/07/11 08:06:36;;;;;;;5.90;3.40;;;;;;;14.81;72.87;100304.47;106063;1277;22553;-81
2022/07/11 08:09:04;;;;;;;5.00;3.00;;;;;;;14.78;73.27;100296.02;106011;1277;23124;-81
2022/07/11 08:11:33;;;;;;;5.90;3.80;;;;;;;14.76;72.72;100295.57;105922;1274;22555;-80
2022/07/11 08:14:02;;;;;;;5.50;3.30;;;;;;;14.77;73.10;100297.11;106036;1275;22573;-80
2022/07/11 08:16:31;;;;;;;5.50;3.70;;;;;;;14.73;72.83;100291.36;106103;1275;24000;-79
2022/07/11 08:19:01;;;;;;;5.40;4.10;;;;;;;14.70;73.49;100297.33;106029;1275;24716;-81
2022/07/11 08:21:28;;;;;;;5.40;4.10;;;;;;;14.77;73.82;100303.85;106030;1274;25478;-79
2022/07/11 08:23:57;;;;;;;8.50;3.40;;;;;;;14.89;74.01;100298.41;105967;1274;23988;-80
2022/07/11 08:26:24;;;;;;;5.90;3.60;;;;;;;15.06;74.08;100297.23;106067;1274;22533;-79
2022/07/11 08:29:02;;;;;;;5.50;3.40;;;;;;;15.37;74.27;100294.89;105980;1274;25366;-80
2022/07/11 08:31:29;;;;;;;5.30;3.30;;;;;;;15.61;73.30;100297.17;106006;1274;22612;-80
2022/07/11 08:33:58;;;;;;;8.60;2.80;;;;;;;15.65;72.35;100297.05;105776;1274;25905;-80
2022/07/11 08:36:25;;;;;;;3.00;2.70;;;;;;;15.68;72.12;100299.62;105783;1275;23826;-79
2022/07/11 08:38:52;;;;;;;3.10;2.90;;;;;;;15.72;72.00;100299.66;106068;1274;22573;-84
2022/07/11 08:41:19;;;;;;;4.10;2.90;;;;;;;15.69;71.32;100300.09;105980;1275;25648;-76
2022/07/11 08:43:46;;;;;;;2.50;2.20;;;;;;;15.69;71.24;100302.05;106055;1275;22563;-81
2022/07/11 08:46:14;;;;;;;5.30;2.40;;;;;;;15.74;71.19;100295.50;106200;1274;22705;-83
2022/07/11 08:48:42;;;;;;;6.20;3.10;;;;;;;15.84;70.62;100295.73;105865;1277;22566;-82
2022/07/11 08:51:11;;;;;;;3.60;2.40;;;;;;;15.88;70.39;100294.20;106068;1274;22524;-83
2022/07/11 08:53:46;;;;;;;3.90;1.90;;;;;;;15.91;69.49;100294.42;105976;1274;22745;-80
2022/07/11 08:56:21;;;;;;;3.10;1.70;;;;;;;15.84;68.47;100296.08;105788;1277;24224;-82
2022/07/11 08:58:50;;;;;;;;;;;;;;;15.77;68.14;100299.30;105912;1274;22534;-83
2022/07/11 09:01:33;;;;;;;4.10;1.80;;;;;;;15.76;68.04;100298.83;105932;1274;22537;-81
2022/07/11 09:04:01;;;;;;;2.00;1.40;;;;;;;15.88;68.58;100300.74;105930;1277;22532;-81
2022/07/11 09:06:28;;;;;;;3.50;1.50;;;;;;;16.12;67.97;100297.33;105924;1277;24325;-76
2022/07/11 09:09:00;;;;;;;2.00;1.10;;;;;;;16.39;67.82;100295.71;105989;1274;24131;-81
2022/07/11 09:11:28;;;;;;;1.60;0.90;;;;;;;16.64;67.32;100291.63;105582;1281;24788;-80
2022/07/11 09:13:55;;;;;;;1.80;1.10;;;;;;;16.79;65.77;100295.34;105794;1282;24197;-79
2022/07/11 09:16:28;;;;;;;0.50;0.50;;;;;;;16.94;65.08;100291.63;105776;1281;22532;-79
2022/07/11 09:18:59;;;;;;;1.30;0.70;;;;;;;17.13;63.80;100292.38;106343;1280;25388;-80
2022/07/11 09:26:57;;;;;;;1.40;0.50;;;;;;;17.99;61.54;100289.52;104956;1288;25336;-79
2022/07/11 09:29:25;;;;;;;0.30;0.30;;;;;;;18.10;60.02;100285.33;105389;1281;25181;-84
2022/07/11 09:31:52;;;;;;;1.40;0.40;;;;;;;18.21;59.70;100292.17;105520;1281;22547;-85
2022/07/11 09:34:23;;;;;;;1.20;0.40;;;;;;;18.25;59.49;100288.83;105510;1281;25506;-81
2022/07/11 09:36:54;;;;;;;1.10;0.40;;;;;;;18.43;59.17;100285.93;105589;1281;22704;-80
2022/07/11 09:39:26;;;;;;;2.70;0.30;;;;;;;18.46;58.85;100282.05;105642;1281;24240;-80
2022/07/11 09:41:55;;;;;;;0.70;0.40;;;;;;;18.55;58.08;100280.41;105511;1275;24333;-84
2022/07/11 09:44:33;;;;;;;0.20;0.20;;;;;;;18.70;57.82;100283.30;105806;1277;22533;-80
2022/07/11 09:47:09;;;;;;;0.50;0.30;;;;;;;18.84;57.29;100277.15;106058;1274;22541;-83
2022/07/11 09:49:39;;;;;;;0.40;0.40;;;;;;;18.99;55.88;100276.12;106193;1277;24387;-80
2022/07/11 09:52:12;;;;;;;1.30;0.30;;;;;;;19.01;55.66;100267.83;106014;1274;25255;-81
2022/07/11 09:54:56;;;;;;;0.30;0.20;;;;;;;19.27;56.33;100273.77;106149;1274;22812;-82
2022/07/11 09:57:38;;;;;;;1.10;0.60;;;;;;;19.56;55.92;100264.54;106492;1275;22542;-81
2022/07/11 10:00:05;;;;;;;0.70;0.20;;;;;;;19.79;55.52;100261.97;106089;1274;24296;-80
2022/07/11 10:02:32;;;;;;;3.00;0.30;;;;;;;19.98;54.94;100261.06;106118;1274;25358;-79
2022/07/11 10:05:00;;;;;;;0.20;0.20;;;;;;;20.14;54.44;100267.10;106111;1275;26626;-81
2022/07/11 10:07:29;;;;;;;1.00;0.20;;;;;;;20.24;53.21;100267.83;106396;1274;24270;-79
2022/07/11 10:10:02;;;;;;;0.20;0.20;;;;;;;20.28;53.79;100268.16;106326;1275;26507;-81
2022/07/11 10:12:31;;;;;;;2.70;0.30;;;;;;;20.33;53.51;100266.64;106159;1274;22565;-83
2022/07/11 10:15:03;;;;;;;0.20;0.20;;;;;;;20.35;52.88;100264.77;106061;1277;23932;-80
2022/07/11 10:17:53;;;;;;;0.70;0.30;;;;;;;20.27;51.78;100263.72;106280;1275;24231;-84
2022/07/11 10:20:44;;;;;;;0.90;0.20;;;;;;;20.15;51.27;100258.43;106085;1276;22619;-81
2022/07/11 10:23:11;;;;;;;0.40;0.20;;;;;;;20.16;51.32;100256.77;106150;1277;22578;-79
2022/07/11 10:26:02;;;;;;;0.20;0.20;;;;;;;20.21;51.25;100259.42;106415;1274;22885;-79
2022/07/11 10:28:46;;;;;;;0.20;0.20;;;;;;;20.04;49.99;100259.88;106211;1277;22578;-78
2022/07/11 10:31:25;;;;;;;0.80;0.40;;;;;;;19.82;50.44;100260.23;106247;1274;25263;-78
2022/07/11 10:34:18;;;;;;;0.50;0.40;;;;;;;19.82;50.98;100259.92;105852;1277;22536;-83
2022/07/11 10:36:46;;;;;;;0.60;0.60;;;;;;;19.73;50.52;100260.14;106086;1274;25369;-78
2022/07/11 10:39:29;;;;;;;3.30;0.90;;;;;;;19.78;50.38;100259.00;105940;1277;22564;-80
2022/07/11 10:41:58;;;;;;;2.50;1.10;;;;;;;19.88;49.77;100263.16;105862;1275;22703;-82
2022/07/11 10:44:27;;;;;;;1.70;1.10;;;;;;;19.76;49.66;100269.14;106134;1274;22551;-79
2022/07/11 10:46:55;;;;;;;1.00;0.90;;;;;;;19.54;49.90;100270.34;106049;1274;26565;-82
2022/07/11 10:49:40;;;;;;;1.40;0.40;;;;;;;19.20;50.56;100280.52;105885;1277;25367;-80
2022/07/11 10:52:08;;;;;;;2.90;0.50;;;;;;;18.69;51.19;100284.41;105742;1275;22794;-80
2022/07/11 10:54:45;;;;;;;2.00;0.40;;;;;;;18.27;52.25;100278.05;106229;1274;25334;-81
2022/07/11 10:57:29;;;;;;;1.00;0.50;;;;;;;18.03;53.22;100278.11;106109;1275;25241;-79
2022/07/11 10:59:59;;;;;;;1.30;0.40;;;;;;;17.84;54.12;100282.48;105528;1281;22631;-80
2022/07/11 11:02:28;;;;;;;1.20;0.20;;;;;;;17.72;54.48;100288.10;105623;1282;24267;-80
2022/07/11 11:04:58;;;;;;;1.30;0.70;;;;;;;17.69;54.00;100284.67;105768;1281;22589;-80
2022/07/11 11:07:42;;;;;;;1.00;0.30;;;;;;;17.66;54.46;100287.80;105628;1281;25458;-80
2022/07/11 11:10:18;;;;;;;1.30;0.50;;;;;;;17.88;54.61;100279.64;105528;1282;25271;-79
2022/07/11 11:13:04;;;;;;;;;;;;;;;17.93;54.51;100283.52;105598;1281;22544;-82
2022/07/11 11:15:32;;;;;;;2.30;0.50;;;;;;;17.99;53.97;100281.86;105987;1281;26798;-81
2022/07/11 11:18:21;;;;;;;1.30;0.40;;;;;;;18.09;53.94;100285.19;105960;1277;22547;-78
2022/07/11 11:21:07;;;;;;;0.30;0.30;;;;;;;18.32;53.37;100282.13;106573;1274;22644;-79
2022/07/11 11:23:42;;;;;;;0.40;0.40;;;;;;;18.57;52.41;100281.02;106207;1275;25433;-81
2022/07/11 11:26:19;;;;;;;0.80;0.40;;;;;;;18.92;52.49;100278.92;106044;1277;24236;-80
2022/07/11 11:29:03;;;;;;;3.10;0.80;;;;;;;19.32;51.95;100279.27;106687;1274;25594;-78
2022/07/11 11:31:31;;;;;;;1.80;0.30;;;;;;;19.70;51.66;100274.39;107967;1274;22672;-80
2022/07/11 11:34:00;;;;;;;1.30;0.50;;;;;;;20.09;50.45;100278.44;106772;1275;25245;-83